Time;durP1;ratioP1;P1;durP2;ratioP2;P2;SDS_P1;SDS_P2;PMS_P1;PMS_P2;Temp;Humidity;BMP_temperature;BMP_pressure;BME280_temperature;BME280_humidity;BME280_pressure;Samples;Min_cycle;Max_cycle;Signal;HPM_P1;HPM_P2
2022/03/28 00:01:43;;;;;;;21.05;6.83;;;;;;;6.94;58.10;101707.57;1709599;82;21129;-87
2022/03/28 00:04:10;;;;;;;20.00;6.00;;;;;;;6.94;58.46;101701.45;1740310;82;21054;-85
2022/03/28 00:06:37;;;;;;;21.48;6.70;;;;;;;6.95;58.54;101707.19;1740562;82;21788;-85
2022/03/28 00:09:05;;;;;;;20.02;6.60;;;;;;;6.96;59.04;101699.81;1740275;82;21006;-85
2022/03/28 00:11:33;;;;;;;13.03;4.50;;;;;;;6.97;58.89;101697.28;1740532;82;21057;-85
2022/03/28 00:14:00;;;;;;;16.27;5.00;;;;;;;6.96;59.46;101694.19;1726674;82;21038;-84
2022/03/28 00:16:27;;;;;;;12.88;5.53;;;;;;;6.96;59.45;101706.36;1712986;82;21135;-87
2022/03/28 00:18:53;;;;;;;15.13;5.10;;;;;;;6.95;59.47;101695.41;1729345;82;22698;-87
2022/03/28 00:21:20;;;;;;;16.23;5.22;;;;;;;6.94;59.85;101692.28;1731195;82;21029;-86
2022/03/28 00:23:47;;;;;;;14.20;4.87;;;;;;;6.93;60.03;101690.09;1740554;82;21009;-86
2022/03/28 00:26:13;;;;;;;14.18;5.87;;;;;;;6.92;60.55;101691.30;1740393;82;21030;-86
2022/03/28 00:28:40;;;;;;;19.65;6.33;;;;;;;6.94;61.13;101683.12;1740683;81;21476;-85
2022/03/28 00:31:07;;;;;;;14.78;6.05;;;;;;;6.94;60.70;101681.40;1740450;81;21751;-85
2022/03/28 00:33:35;;;;;;;14.83;6.17;;;;;;;6.93;60.92;101674.38;1736764;82;21607;-87
2022/03/28 00:36:03;;;;;;;16.07;6.10;;;;;;;6.92;60.81;101666.44;1664886;85;21654;-87
2022/03/28 00:38:32;;;;;;;13.03;5.05;;;;;;;6.87;60.95;101663.59;1659376;85;22288;-87
2022/03/28 00:40:58;;;;;;;15.78;5.33;;;;;;;6.85;61.15;101657.76;1682088;84;21619;-86
2022/03/28 00:43:24;;;;;;;13.53;4.97;;;;;;;6.83;61.29;101656.36;1700233;83;22459;-87
2022/03/28 00:45:51;;;;;;;14.38;5.15;;;;;;;6.82;61.65;101651.96;1659251;85;21031;-87
2022/03/28 00:48:18;;;;;;;13.45;5.72;;;;;;;6.83;61.78;101647.62;1678044;84;21066;-86
2022/03/28 00:50:45;;;;;;;15.30;5.08;;;;;;;6.81;62.04;101642.30;1651393;85;21170;-86
2022/03/28 00:53:13;;;;;;;16.07;5.72;;;;;;;6.80;62.12;101645.33;1700291;83;21067;-86
2022/03/28 00:55:40;;;;;;;12.35;5.60;;;;;;;6.77;62.12;101635.98;1680630;84;21921;-86
2022/03/28 00:58:07;;;;;;;10.40;4.95;;;;;;;6.76;62.48;101643.37;1629385;85;21021;-86
2022/03/28 01:00:34;;;;;;;12.85;5.28;;;;;;;6.78;62.74;101639.11;1740245;81;21050;-86
2022/03/28 01:03:01;;;;;;;8.88;4.28;;;;;;;6.77;62.78;101624.22;1738486;81;21051;-86
2022/03/28 01:05:27;;;;;;;13.35;5.30;;;;;;;6.79;63.05;101624.30;1738431;82;21001;-85
2022/03/28 01:07:55;;;;;;;13.95;5.08;;;;;;;6.80;63.34;101620.89;1718967;81;21809;-86
2022/03/28 01:10:22;;;;;;;8.23;4.58;;;;;;;6.79;63.24;101616.45;1729945;82;21033;-86
2022/03/28 01:12:49;;;;;;;12.73;4.90;;;;;;;6.76;63.38;101604.53;1748774;80;21546;-85
2022/03/28 01:15:15;;;;;;;8.50;4.20;;;;;;;6.74;63.61;101606.17;1730356;81;21050;-85
2022/03/28 01:20:27;;;;;;;10.15;5.03;;;;;;;6.77;64.04;101589.31;1728911;82;21809;-86
2022/03/28 01:22:54;;;;;;;10.35;4.47;;;;;;;6.78;64.19;101578.93;1730207;80;21538;-86
2022/03/28 01:25:24;;;;;;;11.83;4.78;;;;;;;6.80;64.20;101585.14;1726421;80;21072;-86
2022/03/28 01:27:52;;;;;;;12.88;5.15;;;;;;;6.80;64.31;101568.13;1723754;82;21049;-86
2022/03/28 01:30:20;;;;;;;9.58;4.45;;;;;;;6.80;64.71;101566.83;1749041;80;21100;-85
2022/03/28 01:32:48;;;;;;;10.98;4.55;;;;;;;6.81;64.69;101560.79;1709435;83;22600;-85
2022/03/28 01:35:39;;;;;;;10.75;4.90;;;;;;;6.79;64.54;101542.80;1743511;80;21494;-86
2022/03/28 01:38:09;;;;;;;13.35;5.42;;;;;;;6.78;64.79;101551.45;1730587;81;21071;-85
2022/03/28 01:40:38;;;;;;;14.13;5.17;;;;;;;6.78;64.84;101529.63;1740371;82;21005;-85
2022/03/28 01:43:05;;;;;;;9.83;4.15;;;;;;;6.79;65.00;101539.27;1735466;82;21021;-86
2022/03/28 01:45:31;;;;;;;12.47;5.12;;;;;;;6.76;65.04;101528.23;1748894;80;22537;-86
2022/03/28 01:47:58;;;;;;;9.35;4.47;;;;;;;6.76;65.22;101525.62;1735635;80;21048;-86
2022/03/28 01:50:26;;;;;;;10.43;4.75;;;;;;;6.74;65.18;101524.64;1736756;81;21085;-88
2022/03/28 01:52:53;;;;;;;11.63;4.55;;;;;;;6.71;65.26;101520.96;1748254;80;21547;-86
2022/03/28 01:55:20;;;;;;;9.85;4.12;;;;;;;6.70;65.60;101511.30;1749196;81;20970;-88
2022/03/28 01:57:47;;;;;;;13.22;4.87;;;;;;;6.69;65.62;101510.83;1749082;80;21937;-87
2022/03/28 02:00:16;;;;;;;8.90;4.67;;;;;;;6.67;65.56;101516.39;1749173;81;21065;-87
2022/03/28 02:02:46;;;;;;;12.63;4.72;;;;;;;6.66;65.93;101505.00;1711569;82;21532;-86
2022/03/28 02:05:12;;;;;;;11.15;4.40;;;;;;;6.66;65.85;101508.03;1704728;83;21458;-87
2022/03/28 02:07:43;;;;;;;14.07;4.80;;;;;;;6.65;66.03;101507.15;1704615;84;21122;-88
2022/03/28 02:10:10;;;;;;;12.30;4.67;;;;;;;6.66;66.16;101508.93;1677347;84;22843;-86
2022/03/28 02:12:37;;;;;;;10.40;4.40;;;;;;;6.68;66.20;101522.09;1677798;84;21074;-87
2022/03/28 02:15:07;;;;;;;8.75;4.35;;;;;;;6.67;66.15;101500.28;1683309;84;21031;-87
2022/03/28 02:17:34;;;;;;;6.10;3.67;;;;;;;6.67;66.25;101517.70;1690685;82;21166;-86
2022/03/28 02:20:05;;;;;;;9.20;3.58;;;;;;;6.70;66.37;101504.76;1697574;84;21643;-86
2022/03/28 02:22:36;;;;;;;10.95;4.37;;;;;;;6.70;66.56;101491.30;1691058;84;21843;-86
2022/03/28 02:25:04;;;;;;;8.55;3.60;;;;;;;6.72;66.61;101507.97;1685414;84;21515;-87
2022/03/28 02:27:31;;;;;;;13.22;3.98;;;;;;;6.75;66.71;101498.06;1705973;84;21086;-86
2022/03/28 02:29:58;;;;;;;8.18;3.10;;;;;;;6.76;66.65;101494.22;1685660;82;21118;-85
2022/03/28 02:32:25;;;;;;;12.50;4.17;;;;;;;6.77;66.88;101492.08;1703121;84;21138;-86
2022/03/28 02:34:52;;;;;;;9.23;3.45;;;;;;;6.81;66.77;101485.28;1687061;84;21755;-86
2022/03/28 02:37:19;;;;;;;11.73;3.72;;;;;;;6.80;66.82;101490.05;1704163;84;21086;-86
2022/03/28 02:39:45;;;;;;;10.13;4.03;;;;;;;6.79;66.74;101477.39;1689524;84;21545;-86
2022/03/28 02:42:12;;;;;;;11.05;4.20;;;;;;;6.78;66.68;101479.92;1681667;84;21210;-86
2022/03/28 02:44:39;;;;;;;7.83;3.42;;;;;;;6.77;66.77;101475.48;1705677;82;21090;-86
2022/03/28 02:47:09;;;;;;;8.23;3.15;;;;;;;6.76;66.98;101470.67;1704969;84;21762;-86
2022/03/28 02:49:36;;;;;;;15.78;3.87;;;;;;;6.77;66.96;101468.53;1705343;84;21050;-86
2022/03/28 02:52:03;;;;;;;15.60;3.62;;;;;;;6.78;66.99;101469.45;1705264;84;21126;-86
2022/03/28 02:54:34;;;;;;;7.28;3.27;;;;;;;6.78;67.03;101470.76;1694524;83;21104;-88
2022/03/28 02:57:00;;;;;;;8.73;3.42;;;;;;;6.77;67.23;101463.71;1696022;84;21040;-87
2022/03/28 02:59:27;;;;;;;6.12;3.42;;;;;;;6.77;67.19;101467.64;1704177;84;21807;-87
2022/03/28 03:01:55;;;;;;;10.38;3.67;;;;;;;6.76;67.09;101478.52;1709745;83;21074;-85
2022/03/28 03:04:21;;;;;;;9.83;3.80;;;;;;;6.74;67.14;101447.88;1713185;83;21089;-86
2022/03/28 03:06:48;;;;;;;10.98;3.65;;;;;;;6.71;67.29;101451.63;1695173;83;21097;-85
2022/03/28 03:09:18;;;;;;;7.92;3.40;;;;;;;6.72;67.32;101445.56;1706921;83;21679;-93
2022/03/28 03:11:44;;;;;;;10.38;3.62;;;;;;;6.72;67.33;101456.03;1698530;83;21770;-90
2022/03/28 03:14:11;;;;;;;10.45;3.92;;;;;;;6.70;67.36;101448.13;1719106;82;21794;-91
2022/03/28 03:16:40;;;;;;;8.63;3.70;;;;;;;6.69;67.34;101457.20;1709083;82;21109;-93
2022/03/28 03:19:06;;;;;;;13.10;3.50;;;;;;;6.60;67.44;101440.59;1707711;83;20987;-91
2022/03/28 03:21:33;;;;;;;9.25;3.98;;;;;;;6.66;67.43;101460.53;1714088;83;21106;-88
2022/03/28 03:24:05;;;;;;;17.10;4.78;;;;;;;6.67;67.54;101456.22;1689943;83;21731;-89
2022/03/28 03:26:31;;;;;;;15.78;8.35;;;;;;;6.64;67.55;101453.44;1709863;83;21496;-88
2022/03/28 03:28:58;;;;;;;21.33;10.43;;;;;;;6.65;67.72;101448.28;1683617;83;21069;-87
2022/03/28 03:31:25;;;;;;;13.03;5.72;;;;;;;6.64;67.73;101445.59;1700409;83;21351;-85
2022/03/28 03:33:52;;;;;;;12.95;4.37;;;;;;;6.63;67.65;101443.81;1697093;83;21104;-86
2022/03/28 03:36:19;;;;;;;11.38;4.37;;;;;;;6.61;67.62;101443.30;1702846;82;21588;-86
2022/03/28 03:38:46;;;;;;;12.47;4.10;;;;;;;6.60;67.75;101440.59;1714786;83;21086;-84
2022/03/28 03:41:13;;;;;;;8.53;4.12;;;;;;;6.59;67.89;101439.71;1718819;83;21081;-84
2022/03/28 03:43:39;;;;;;;12.28;3.75;;;;;;;6.59;68.08;101440.13;1698486;82;21069;-86
2022/03/28 03:46:06;;;;;;;12.98;4.60;;;;;;;6.57;68.00;101435.23;1707576;83;21616;-85
2022/03/28 03:48:34;;;;;;;9.08;3.62;;;;;;;6.56;67.90;101426.87;1717435;83;21749;-85
2022/03/28 03:51:01;;;;;;;14.98;3.83;;;;;;;6.51;67.97;101421.39;1698806;83;21618;-85
2022/03/28 03:53:27;;;;;;;8.28;3.60;;;;;;;6.50;68.06;101426.15;1718800;79;21117;-85
2022/03/28 03:55:54;;;;;;;12.47;3.55;;;;;;;6.49;68.26;101417.80;1697731;82;21077;-85
2022/03/28 03:58:21;;;;;;;13.58;4.72;;;;;;;6.48;68.21;101408.59;1702636;83;21146;-85
2022/03/28 04:00:47;;;;;;;12.78;3.95;;;;;;;6.47;68.22;101410.70;1699741;83;21754;-87
2022/03/28 04:03:14;;;;;;;15.95;6.53;;;;;;;6.45;68.25;101408.42;1707974;82;21023;-82
2022/03/28 04:05:41;;;;;;;11.08;5.72;;;;;;;6.42;68.18;101405.25;1703996;82;21012;-82
2022/03/28 04:08:08;;;;;;;11.18;4.72;;;;;;;6.39;68.29;101406.39;1704816;84;21089;-80
2022/03/28 04:10:36;;;;;;;13.85;3.98;;;;;;;6.37;68.34;101401.07;1691742;84;21031;-79
2022/03/28 04:13:05;;;;;;;9.13;3.75;;;;;;;6.37;68.39;101402.80;1696855;82;24300;-81
2022/03/28 04:15:47;;;;;;;8.08;3.15;;;;;;;6.32;68.49;101401.23;1655515;85;21162;-81
2022/03/28 04:18:16;;;;;;;8.28;3.72;;;;;;;6.20;68.49;101391.03;1699518;84;21588;-80
2022/03/28 04:20:43;;;;;;;7.58;3.50;;;;;;;6.27;68.69;101405.34;1692911;84;21080;-82
2022/03/28 04:23:09;;;;;;;10.40;4.10;;;;;;;6.24;68.71;101406.47;1676885;84;21067;-80
2022/03/28 04:25:36;;;;;;;11.25;4.55;;;;;;;6.23;68.84;101410.81;1694572;82;21703;-80
2022/03/28 04:28:07;;;;;;;12.23;4.05;;;;;;;6.20;68.89;101401.48;1695144;84;21621;-76
2022/03/28 04:30:34;;;;;;;10.75;4.00;;;;;;;6.20;68.99;101398.88;1684721;82;21390;-76
2022/03/28 04:33:02;;;;;;;13.45;4.75;;;;;;;6.16;68.97;101396.92;1705061;84;21093;-77
2022/03/28 04:35:29;;;;;;;11.10;4.30;;;;;;;6.14;69.05;101402.89;1704919;82;21622;-78
2022/03/28 04:37:57;;;;;;;12.15;4.50;;;;;;;6.12;69.05;101396.27;1704758;84;21882;-92
2022/03/28 04:40:36;;;;;;;11.50;4.55;;;;;;;6.11;69.15;101398.80;1684733;84;21125;-92
2022/03/28 04:43:07;;;;;;;10.55;4.42;;;;;;;6.11;69.18;101406.64;1649701;86;21040;-92
2022/03/28 04:45:36;;;;;;;9.58;4.33;;;;;;;6.13;69.33;101396.75;1704736;79;21090;-94
2022/03/28 04:48:03;;;;;;;10.13;4.65;;;;;;;6.15;69.46;101389.88;1705526;84;21563;-83
2022/03/28 04:50:29;;;;;;;10.80;5.30;;;;;;;6.19;69.47;101392.25;1684980;84;22575;-81
2022/03/28 04:52:56;;;;;;;13.05;5.25;;;;;;;6.23;69.43;101389.90;1693960;84;21611;-78
2022/03/28 04:55:23;;;;;;;12.20;5.05;;;;;;;6.29;69.48;101389.70;1676670;84;21082;-79
2022/03/28 04:57:50;;;;;;;11.90;5.05;;;;;;;6.34;69.33;101382.59;1685438;82;21070;-86
2022/03/28 05:00:17;;;;;;;12.85;4.83;;;;;;;6.43;69.33;101386.11;1687487;84;21117;-83
2022/03/28 05:02:44;;;;;;;11.35;5.17;;;;;;;6.51;69.20;101382.16;1691722;82;21200;-82
2022/03/28 05:05:11;;;;;;;14.18;4.75;;;;;;;6.61;69.08;101383.55;1726627;82;21144;-83
2022/03/28 05:07:38;;;;;;;9.08;4.80;;;;;;;6.69;68.94;101379.60;1720583;82;21053;-84
2022/03/28 05:10:11;;;;;;;10.08;4.40;;;;;;;6.80;68.81;101378.84;1738398;82;21512;-85
2022/03/28 05:12:40;;;;;;;12.80;4.58;;;;;;;6.83;68.66;101349.30;1704479;83;21154;-85
2022/03/28 05:15:21;;;;;;;10.35;4.35;;;;;;;7.11;68.53;101368.57;1712079;82;21045;-85
2022/03/28 05:17:49;;;;;;;9.55;4.75;;;;;;;7.29;68.30;101367.27;1715182;82;21081;-84
2022/03/28 05:20:24;;;;;;;7.90;3.70;;;;;;;7.46;67.97;101362.41;1697498;83;21123;-82
2022/03/28 05:22:51;;;;;;;11.43;4.47;;;;;;;7.60;67.60;101359.13;1678634;85;21077;-82
2022/03/28 05:25:20;;;;;;;8.35;3.80;;;;;;;7.73;67.37;101352.73;1644654;85;21031;-81
2022/03/28 05:27:47;;;;;;;9.33;4.17;;;;;;;7.86;67.13;101352.47;1645120;85;21754;-81
2022/03/28 05:30:32;;;;;;;9.48;4.53;;;;;;;7.96;66.84;101354.70;1725237;82;20991;-83
2022/03/28 05:32:57;;;;;;;9.85;4.03;;;;;;;8.04;66.56;101344.55;1738487;82;21041;-82
2022/03/28 05:35:24;;;;;;;10.85;4.03;;;;;;;8.12;66.31;101344.47;1740116;81;21034;-82
2022/03/28 05:37:59;;;;;;;9.45;4.22;;;;;;;8.17;66.16;101346.00;1699217;84;21047;-82
2022/03/28 05:40:27;;;;;;;10.28;4.83;;;;;;;8.24;65.90;101339.28;1645175;85;21698;-82
2022/03/28 05:42:57;;;;;;;6.55;3.83;;;;;;;8.28;65.66;101339.50;1648615;85;21074;-83
2022/03/28 05:45:25;;;;;;;11.68;4.28;;;;;;;8.23;65.50;101317.41;1617512;87;21199;-82
2022/03/28 05:48:07;;;;;;;10.85;3.70;;;;;;;8.36;65.25;101327.59;1676815;85;21190;-82
2022/03/28 05:50:33;;;;;;;9.98;3.40;;;;;;;8.37;65.12;101327.17;1673130;85;21171;-82
2022/03/28 05:53:04;;;;;;;10.50;3.75;;;;;;;8.42;64.92;101311.69;1676638;85;21790;-82
2022/03/28 05:55:30;;;;;;;7.25;4.12;;;;;;;8.47;64.76;101318.92;1678882;84;21793;-81
2022/03/28 05:57:57;;;;;;;8.38;3.85;;;;;;;8.51;64.61;101316.91;1677642;85;21105;-81
2022/03/28 06:00:23;;;;;;;11.78;3.87;;;;;;;8.54;64.43;101318.36;1679558;84;21157;-83
2022/03/28 06:02:58;;;;;;;9.73;3.45;;;;;;;8.60;64.30;101311.58;1676632;85;21094;-81
2022/03/28 06:05:39;;;;;;;11.53;4.22;;;;;;;8.64;64.14;101318.31;1717944;82;21872;-81
2022/03/28 06:08:10;;;;;;;8.78;3.67;;;;;;;8.68;64.00;101312.78;1741933;82;21069;-82
2022/03/28 06:10:43;;;;;;;12.00;4.05;;;;;;;8.68;63.88;101314.98;1707305;82;21009;-82
2022/03/28 06:13:10;;;;;;;10.23;3.72;;;;;;;8.69;63.70;101315.48;1742908;80;20994;-82
2022/03/28 06:15:39;;;;;;;6.75;3.95;;;;;;;8.71;63.57;101308.98;1748828;80;21005;-82
2022/03/28 06:18:06;;;;;;;8.45;4.45;;;;;;;8.73;63.50;101307.32;1726057;82;21760;-81
2022/03/28 06:20:33;;;;;;;8.70;4.03;;;;;;;8.76;63.52;101312.67;1729627;82;21029;-81
2022/03/28 06:23:00;;;;;;;10.18;4.50;;;;;;;8.80;63.39;101311.96;1728601;80;21064;-81
2022/03/28 06:25:26;;;;;;;9.23;3.62;;;;;;;8.84;63.32;101316.53;1718627;82;21020;-81
2022/03/28 06:27:53;;;;;;;10.23;6.80;;;;;;;8.87;63.19;101309.19;1718928;82;21004;-82
2022/03/28 06:30:20;;;;;;;13.48;6.53;;;;;;;8.85;63.13;101310.86;1718697;82;21740;-82
2022/03/28 06:32:47;;;;;;;10.48;5.62;;;;;;;8.83;63.08;101311.22;1718367;82;21555;-81
2022/03/28 06:35:13;;;;;;;9.55;4.33;;;;;;;8.84;63.08;101308.66;1739776;82;20989;-81
2022/03/28 06:37:40;;;;;;;8.45;3.87;;;;;;;8.85;63.03;101312.17;1718759;82;21491;-82
2022/03/28 06:40:08;;;;;;;14.75;4.90;;;;;;;8.87;62.95;101304.83;1740283;82;21013;-81
2022/03/28 06:42:35;;;;;;;8.58;4.53;;;;;;;8.88;62.91;101301.37;1748423;80;22644;-82
2022/03/28 06:45:02;;;;;;;7.72;4.42;;;;;;;8.91;62.88;101301.91;1729501;82;21125;-81
2022/03/28 06:47:29;;;;;;;10.10;4.80;;;;;;;8.92;62.85;101299.78;1746960;82;21037;-81
2022/03/28 06:49:55;;;;;;;7.92;4.60;;;;;;;8.95;62.83;101301.19;1748686;80;21097;-81
2022/03/28 06:52:22;;;;;;;8.55;4.40;;;;;;;8.98;62.85;101302.64;1730867;80;20883;-81
2022/03/28 06:54:49;;;;;;;8.68;4.95;;;;;;;9.00;62.64;101293.09;1748752;82;21329;-81
2022/03/28 06:57:16;;;;;;;6.22;4.17;;;;;;;9.00;62.62;101290.89;1746220;82;21029;-81
2022/03/28 06:59:42;;;;;;;7.65;4.40;;;;;;;9.02;62.65;101294.47;1730952;82;20994;-81
2022/03/28 07:02:10;;;;;;;9.00;5.40;;;;;;;9.02;62.59;101283.97;1748773;81;21009;-81
2022/03/28 07:04:36;;;;;;;10.93;6.45;;;;;;;9.02;62.62;101287.91;1720112;82;21626;-81
2022/03/28 07:07:04;;;;;;;8.73;4.70;;;;;;;9.08;62.67;101285.52;1715487;82;21902;-82
2022/03/28 07:09:30;;;;;;;7.83;5.70;;;;;;;9.12;62.62;101278.23;1742044;81;21444;-82
2022/03/28 07:11:59;;;;;;;6.85;4.10;;;;;;;9.17;62.48;101275.80;1741044;81;21017;-81
2022/03/28 07:14:26;;;;;;;11.73;5.03;;;;;;;9.19;62.37;101278.06;1721872;82;21179;-81
2022/03/28 07:16:52;;;;;;;6.78;4.55;;;;;;;9.22;62.31;101266.38;1731917;82;21117;-81
2022/03/28 07:19:19;;;;;;;7.83;4.87;;;;;;;9.27;62.25;101272.68;1711068;82;21984;-81
2022/03/28 07:21:46;;;;;;;8.63;4.47;;;;;;;9.30;62.09;101258.36;1736441;82;21041;-81
2022/03/28 07:24:13;;;;;;;10.68;4.42;;;;;;;9.35;61.98;101258.13;1730282;81;21008;-82
2022/03/28 07:26:39;;;;;;;8.48;4.97;;;;;;;9.38;61.85;101250.34;1712669;82;21018;-81
2022/03/28 07:29:06;;;;;;;9.93;4.35;;;;;;;9.43;61.86;101243.97;1722533;82;21117;-81
2022/03/28 07:31:36;;;;;;;8.00;4.10;;;;;;;9.47;61.72;101240.18;1740694;81;21751;-81
2022/03/28 07:34:47;;;;;;;7.40;4.00;;;;;;;9.53;61.63;101243.06;1731648;82;21547;-81
2022/03/28 07:36:31;;;;;;;7.83;4.08;;;;;;;9.59;61.53;101230.56;1674240;82;21029;-81
2022/03/28 07:38:58;;;;;;;9.08;4.12;;;;;;;9.65;61.38;101224.63;1709023;83;38743;-80
2022/03/28 07:41:26;;;;;;;8.68;4.33;;;;;;;9.69;61.19;101234.41;1727660;81;21030;-80
2022/03/28 07:43:53;;;;;;;7.62;3.98;;;;;;;9.72;61.12;101225.30;1715093;82;21748;-80
2022/03/28 07:46:19;;;;;;;5.50;4.35;;;;;;;9.77;61.09;101230.31;1725082;82;21041;-80
2022/03/28 07:48:46;;;;;;;8.70;4.03;;;;;;;9.83;61.02;101229.64;1738395;81;21033;-81
2022/03/28 07:51:13;;;;;;;7.92;4.28;;;;;;;9.90;60.91;101225.08;1722554;81;21452;-81
2022/03/28 07:53:39;;;;;;;10.25;4.20;;;;;;;9.97;60.73;101210.42;1740802;81;21737;-81
2022/03/28 07:56:06;;;;;;;6.25;3.40;;;;;;;10.04;60.49;101217.66;1719998;82;22517;-81
2022/03/28 07:58:33;;;;;;;6.83;3.83;;;;;;;10.08;60.35;101216.52;1740511;82;21033;-81
2022/03/28 08:01:00;;;;;;;9.53;4.62;;;;;;;10.15;60.22;101211.45;1719884;82;21069;-81
2022/03/28 08:03:27;;;;;;;10.45;4.10;;;;;;;10.20;60.13;101207.26;1727753;82;21065;-81
2022/03/28 08:05:54;;;;;;;6.72;3.58;;;;;;;10.26;60.03;101204.39;1743062;80;21068;-81
2022/03/28 08:08:21;;;;;;;10.32;3.85;;;;;;;10.32;59.84;101197.16;1748072;80;22515;-81
2022/03/28 08:10:47;;;;;;;14.50;3.90;;;;;;;10.37;59.57;101208.74;1747589;80;20993;-81
2022/03/28 08:13:14;;;;;;;11.80;4.05;;;;;;;10.40;59.31;101207.94;1748302;81;21502;-81
2022/03/28 08:15:40;;;;;;;8.90;3.87;;;;;;;10.38;59.08;101197.39;1748278;81;21041;-81
2022/03/28 08:18:07;;;;;;;5.53;3.05;;;;;;;10.38;59.11;101196.07;1727498;82;21052;-80
2022/03/28 08:20:34;;;;;;;6.47;3.55;;;;;;;10.43;59.04;101197.09;1748797;82;22629;-80
2022/03/28 08:23:00;;;;;;;13.53;3.87;;;;;;;10.48;58.86;101195.94;1728178;82;21062;-82
2022/03/28 08:25:27;;;;;;;7.85;3.12;;;;;;;10.52;58.83;101198.25;1748043;80;21048;-81
2022/03/28 08:27:54;;;;;;;6.10;3.30;;;;;;;10.58;58.59;101198.02;1748600;82;21171;-80
2022/03/28 08:30:20;;;;;;;5.12;2.85;;;;;;;10.63;58.49;101202.13;1748472;81;21033;-80
2022/03/28 08:32:47;;;;;;;8.88;2.70;;;;;;;10.68;58.38;101183.00;1748094;80;21779;-81
2022/03/28 08:35:14;;;;;;;7.30;2.98;;;;;;;10.77;58.12;101190.70;1745084;80;21138;-81
2022/03/28 08:37:41;;;;;;;5.80;3.45;;;;;;;10.81;57.99;101172.83;1731068;82;20998;-82
2022/03/28 08:40:16;;;;;;;4.62;2.40;;;;;;;10.88;57.98;101179.64;1748303;80;21065;-83
2022/03/28 08:42:43;;;;;;;5.90;3.02;;;;;;;10.96;57.94;101171.09;1748274;81;21033;-81
2022/03/28 08:45:11;;;;;;;6.28;3.83;;;;;;;11.02;57.68;101184.47;1727822;81;22971;-81
2022/03/28 08:47:41;;;;;;;8.13;2.90;;;;;;;11.06;57.26;101175.37;1727671;80;22148;-81
2022/03/28 08:50:10;;;;;;;9.63;3.35;;;;;;;11.07;57.24;101174.53;1748127;80;21045;-79
2022/03/28 08:52:41;;;;;;;8.83;2.98;;;;;;;11.13;57.08;101184.36;1740498;80;21246;-82
2022/03/28 08:55:12;;;;;;;9.55;2.90;;;;;;;11.18;57.00;101180.53;1718381;82;21046;-81
2022/03/28 08:57:39;;;;;;;5.37;2.90;;;;;;;11.22;56.98;101179.36;1725108;82;21657;-80
2022/03/28 09:00:10;;;;;;;9.93;3.25;;;;;;;11.29;57.00;101174.71;1731592;81;21040;-80
2022/03/28 09:02:47;;;;;;;5.80;2.27;;;;;;;11.39;56.96;101180.25;1739152;82;20990;-80
2022/03/28 09:05:14;;;;;;;14.87;3.42;;;;;;;11.44;56.55;101174.69;1696948;83;21081;-80
2022/03/28 09:07:42;;;;;;;5.45;3.17;;;;;;;11.42;56.29;101182.55;1709107;83;21094;-80
2022/03/28 09:10:15;;;;;;;6.70;3.42;;;;;;;11.40;56.21;101185.58;1688841;82;21757;-81
2022/03/28 09:13:09;;;;;;;9.60;3.83;;;;;;;11.41;56.07;101184.73;1691305;83;21130;-81
2022/03/28 09:15:48;;;;;;;10.88;3.15;;;;;;;11.44;56.00;101168.11;1708497;82;21784;-80
2022/03/28 09:18:25;;;;;;;7.25;2.50;;;;;;;11.45;55.89;101169.47;1711632;82;21120;-82
2022/03/28 09:20:54;;;;;;;14.47;3.05;;;;;;;11.44;55.71;101166.35;1722803;82;21109;-82
2022/03/28 09:23:42;;;;;;;6.95;3.40;;;;;;;11.42;55.68;101155.31;1711579;82;21827;-80
2022/03/28 09:26:13;;;;;;;8.20;2.98;;;;;;;11.43;55.70;101156.67;1721286;81;21733;-80
2022/03/28 09:28:56;;;;;;;7.00;3.08;;;;;;;11.44;55.76;101153.17;1708469;82;21077;-80
2022/03/28 09:31:31;;;;;;;4.95;2.60;;;;;;;11.50;55.83;101160.79;1708781;82;21522;-80
2022/03/28 09:34:13;;;;;;;6.22;3.12;;;;;;;11.57;55.69;101145.62;1738192;81;21690;-79
2022/03/28 09:36:44;;;;;;;8.53;3.00;;;;;;;11.62;55.56;101151.48;1738322;81;21729;-81
2022/03/28 09:39:29;;;;;;;9.78;3.25;;;;;;;11.65;55.32;101145.38;1708994;82;21077;-80
2022/03/28 09:42:07;;;;;;;5.90;2.37;;;;;;;11.66;55.27;101143.23;1710734;82;21073;-81
2022/03/28 09:44:42;;;;;;;6.85;2.98;;;;;;;11.68;55.21;101143.73;1738400;82;21550;-81
2022/03/28 09:47:12;;;;;;;9.78;2.80;;;;;;;11.72;55.10;101146.02;1713723;82;21092;-81
2022/03/28 09:49:41;;;;;;;8.10;2.65;;;;;;;11.72;54.78;101148.66;1713540;82;21764;-81
2022/03/28 09:52:14;;;;;;;7.75;2.70;;;;;;;11.71;54.77;101153.45;1659148;83;21028;-80
2022/03/28 09:54:52;;;;;;;12.47;3.25;;;;;;;11.73;54.80;101156.13;1709447;82;21582;-81
2022/03/28 09:57:34;;;;;;;8.48;3.05;;;;;;;11.73;54.71;101143.87;1689172;83;21125;-81
2022/03/28 10:00:15;;;;;;;8.90;2.80;;;;;;;11.75;54.76;101146.52;1694970;82;21093;-81
2022/03/28 10:02:42;;;;;;;7.35;2.90;;;;;;;11.76;54.65;101147.88;1686929;83;22174;-83
2022/03/28 10:05:09;;;;;;;7.00;2.83;;;;;;;11.79;54.70;101150.61;1719251;81;21074;-81
2022/03/28 10:07:35;;;;;;;4.97;2.60;;;;;;;11.85;54.60;101155.16;1715400;82;21112;-80
2022/03/28 10:10:06;;;;;;;8.43;2.72;;;;;;;11.83;54.24;101148.52;1737656;82;21618;-80
2022/03/28 10:12:33;;;;;;;5.95;2.75;;;;;;;11.80;54.01;101141.83;1739642;82;21060;-80
2022/03/28 10:15:01;;;;;;;9.90;3.15;;;;;;;11.81;54.42;101126.92;1739749;82;22560;-81
2022/03/28 10:17:30;;;;;;;11.68;3.72;;;;;;;11.86;54.26;101132.78;1740123;81;21117;-81
2022/03/28 10:19:57;;;;;;;7.12;2.85;;;;;;;11.90;54.05;101134.19;1736759;82;21133;-81
2022/03/28 10:22:31;;;;;;;8.15;3.10;;;;;;;11.92;54.01;101133.40;1722978;82;21030;-80
2022/03/28 10:25:00;;;;;;;;;;;;;;;11.92;53.99;101124.16;1740397;81;21578;-80
2022/03/28 10:27:27;;;;;;;6.28;2.70;;;;;;;11.95;54.08;101116.31;1722029;81;21859;-80
2022/03/28 10:29:54;;;;;;;5.97;2.70;;;;;;;12.00;54.16;101113.37;1718816;82;21045;-80
2022/03/28 10:32:21;;;;;;;10.20;4.42;;;;;;;12.06;54.14;101121.86;1719831;82;21049;-80
2022/03/28 10:34:52;;;;;;;11.03;2.85;;;;;;;12.14;54.13;101118.97;1739826;81;21554;-80
2022/03/28 10:37:45;;;;;;;7.85;2.85;;;;;;;12.19;54.00;101126.58;1739905;81;21190;-80
2022/03/28 10:40:25;;;;;;;11.22;4.30;;;;;;;12.26;53.90;101121.04;1740040;82;21794;-80
2022/03/28 10:43:13;;;;;;;10.45;2.67;;;;;;;12.27;53.72;101118.84;1725805;82;21033;-79
2022/03/28 10:45:50;;;;;;;10.43;3.15;;;;;;;12.28;53.58;101125.05;1715260;82;21562;-79
2022/03/28 10:48:39;;;;;;;9.93;3.47;;;;;;;12.23;53.47;101117.00;1738625;82;21590;-82
2022/03/28 10:51:19;;;;;;;10.82;3.25;;;;;;;12.18;53.55;101124.81;1698262;82;21112;-80
2022/03/28 10:53:54;;;;;;;7.00;3.10;;;;;;;12.14;53.54;101111.49;1739525;81;21700;-80
2022/03/28 10:56:26;;;;;;;6.95;2.75;;;;;;;12.09;53.34;101108.76;1739346;81;21061;-80
2022/03/28 10:59:01;;;;;;;8.38;3.12;;;;;;;12.08;53.22;101101.68;1738097;82;21522;-80
2022/03/28 11:01:32;;;;;;;7.65;3.72;;;;;;;12.05;53.37;101106.47;1722237;82;21077;-80
2022/03/28 11:04:15;;;;;;;9.48;3.40;;;;;;;12.01;53.41;101105.02;1732384;81;21094;-80
2022/03/28 11:07:07;;;;;;;9.95;3.17;;;;;;;12.00;53.39;101089.62;1709011;83;21984;-80
2022/03/28 11:09:54;;;;;;;8.73;3.45;;;;;;;12.00;53.32;101090.94;1707674;83;21105;-79
2022/03/28 11:12:37;;;;;;;11.25;3.00;;;;;;;11.94;53.22;101083.32;1694453;83;21579;-80
2022/03/28 11:15:21;;;;;;;4.17;2.80;;;;;;;11.91;53.22;101068.72;1709065;82;21622;-79
2022/03/28 11:18:00;;;;;;;10.88;3.77;;;;;;;11.92;53.24;101071.81;1709363;83;21079;-80
2022/03/28 11:20:28;;;;;;;9.13;3.50;;;;;;;11.94;53.22;101071.45;1680797;83;21748;-82
2022/03/28 11:23:08;;;;;;;10.08;3.98;;;;;;;11.95;53.33;101063.98;1699196;83;21146;-82
2022/03/28 11:25:46;;;;;;;8.38;2.90;;;;;;;11.98;53.30;101053.52;1690566;83;21106;-81
2022/03/28 11:28:26;;;;;;;11.55;3.27;;;;;;;11.99;53.18;101049.60;1709663;83;21070;-82
2022/03/28 11:31:09;;;;;;;7.97;3.22;;;;;;;12.03;53.13;101043.94;1709512;82;21622;-81
2022/03/28 11:33:52;;;;;;;12.13;4.47;;;;;;;12.05;53.06;101052.38;1705909;82;21788;-81
2022/03/28 11:36:30;;;;;;;9.00;3.60;;;;;;;11.95;53.10;101027.94;1699297;82;21655;-81
2022/03/28 11:39:11;;;;;;;6.75;3.08;;;;;;;12.08;53.08;101049.34;1706770;83;21101;-82
2022/03/28 11:41:40;;;;;;;11.22;4.25;;;;;;;12.11;53.14;101041.52;1680490;82;21070;-80